sensor_id;sensor_type;location;lat;lon;timestamp;P1;durP1;ratioP1;P2;durP2;ratioP2
63818;SDS011;49970;54.976;73.248;2022-10-16T00:01:21;40.03;;;23.55;;
63818;SDS011;49970;54.976;73.248;2022-10-16T00:03:49;46.35;;;25.85;;
63818;SDS011;49970;54.976;73.248;2022-10-16T00:06:16;52.47;;;32.67;;
63818;SDS011;49970;54.976;73.248;2022-10-16T00:08:44;147.30;;;89.55;;
63818;SDS011;49970;54.976;73.248;2022-10-16T00:11:13;63.35;;;33.28;;
63818;SDS011;49970;54.976;73.248;2022-10-16T00:13:43;47.72;;;27.25;;
63818;SDS011;49970;54.976;73.248;2022-10-16T00:16:11;50.10;;;25.60;;
63818;SDS011;49970;54.976;73.248;2022-10-16T00:18:38;52.95;;;24.60;;
63818;SDS011;49970;54.976;73.248;2022-10-16T00:21:06;47.05;;;25.10;;
63818;SDS011;49970;54.976;73.248;2022-10-16T00:23:37;50.38;;;23.92;;
63818;SDS011;49970;54.976;73.248;2022-10-16T00:26:05;53.20;;;24.55;;
63818;SDS011;49970;54.976;73.248;2022-10-16T00:28:33;61.55;;;28.17;;
63818;SDS011;49970;54.976;73.248;2022-10-16T00:31:02;54.97;;;26.60;;
63818;SDS011;49970;54.976;73.248;2022-10-16T00:33:29;40.38;;;23.13;;
63818;SDS011;49970;54.976;73.248;2022-10-16T00:35:58;36.88;;;23.27;;
63818;SDS011;49970;54.976;73.248;2022-10-16T00:38:35;40.58;;;23.40;;
63818;SDS011;49970;54.976;73.248;2022-10-16T00:41:02;48.92;;;22.27;;
63818;SDS011;49970;54.976;73.248;2022-10-16T00:43:38;45.00;;;22.83;;
63818;SDS011;49970;54.976;73.248;2022-10-16T00:46:17;44.25;;;22.38;;
63818;SDS011;49970;54.976;73.248;2022-10-16T00:49:06;55.03;;;19.80;;
63818;SDS011;49970;54.976;73.248;2022-10-16T00:51:42;45.75;;;21.95;;
63818;SDS011;49970;54.976;73.248;2022-10-16T00:54:21;43.45;;;21.73;;
63818;SDS011;49970;54.976;73.248;2022-10-16T00:56:50;39.95;;;21.52;;
63818;SDS011;49970;54.976;73.248;2022-10-16T00:59:24;36.15;;;20.75;;
63818;SDS011;49970;54.976;73.248;2022-10-16T01:01:52;38.63;;;21.90;;
63818;SDS011;49970;54.976;73.248;2022-10-16T01:04:20;37.63;;;21.95;;
63818;SDS011;49970;54.976;73.248;2022-10-16T01:09:50;39.30;;;18.75;;
63818;SDS011;49970;54.976;73.248;2022-10-16T01:15:25;42.90;;;19.63;;
63818;SDS011;49970;54.976;73.248;2022-10-16T01:24:02;51.97;;;20.00;;
63818;SDS011;49970;54.976;73.248;2022-10-16T01:26:42;59.20;;;23.97;;
63818;SDS011;49970;54.976;73.248;2022-10-16T01:29:30;53.70;;;21.58;;
63818;SDS011;49970;54.976;73.248;2022-10-16T01:32:10;55.67;;;21.40;;
63818;SDS011;49970;54.976;73.248;2022-10-16T01:35:18;56.17;;;22.67;;
63818;SDS011;49970;54.976;73.248;2022-10-16T01:37:55;37.55;;;20.20;;
63818;SDS011;49970;54.976;73.248;2022-10-16T01:40:34;53.67;;;19.35;;
63818;SDS011;49970;54.976;73.248;2022-10-16T01:43:08;41.13;;;18.65;;
63818;SDS011;49970;54.976;73.248;2022-10-16T01:45:39;43.17;;;18.88;;
63818;SDS011;49970;54.976;73.248;2022-10-16T01:48:18;55.33;;;21.10;;
63818;SDS011;49970;54.976;73.248;2022-10-16T01:53:48;61.90;;;19.95;;
63818;SDS011;49970;54.976;73.248;2022-10-16T01:56:20;48.17;;;21.00;;
63818;SDS011;49970;54.976;73.248;2022-10-16T01:59:09;51.03;;;17.92;;
63818;SDS011;49970;54.976;73.248;2022-10-16T02:01:48;39.28;;;17.75;;
63818;SDS011;49970;54.976;73.248;2022-10-16T02:04:24;51.35;;;17.15;;
63818;SDS011;49970;54.976;73.248;2022-10-16T02:07:13;26.42;;;16.35;;
63818;SDS011;49970;54.976;73.248;2022-10-16T02:09:40;31.25;;;16.33;;
63818;SDS011;49970;54.976;73.248;2022-10-16T02:12:11;24.30;;;15.80;;
63818;SDS011;49970;54.976;73.248;2022-10-16T02:14:47;40.00;;;16.38;;
63818;SDS011;49970;54.976;73.248;2022-10-16T02:17:15;34.83;;;17.02;;
63818;SDS011;49970;54.976;73.248;2022-10-16T02:19:43;41.15;;;18.17;;
63818;SDS011;49970;54.976;73.248;2022-10-16T02:22:15;37.30;;;14.55;;
63818;SDS011;49970;54.976;73.248;2022-10-16T02:24:55;42.33;;;17.48;;
63818;SDS011;49970;54.976;73.248;2022-10-16T02:30:25;39.40;;;16.42;;
63818;SDS011;49970;54.976;73.248;2022-10-16T02:32:53;35.63;;;17.05;;
63818;SDS011;49970;54.976;73.248;2022-10-16T02:35:24;33.72;;;17.48;;
63818;SDS011;49970;54.976;73.248;2022-10-16T02:37:52;34.28;;;17.25;;
63818;SDS011;49970;54.976;73.248;2022-10-16T02:40:19;37.70;;;17.98;;
63818;SDS011;49970;54.976;73.248;2022-10-16T02:42:49;43.00;;;19.67;;
63818;SDS011;49970;54.976;73.248;2022-10-16T02:45:17;48.50;;;20.63;;
63818;SDS011;49970;54.976;73.248;2022-10-16T02:47:44;41.95;;;22.58;;
63818;SDS011;49970;54.976;73.248;2022-10-16T02:50:10;45.95;;;23.17;;
63818;SDS011;49970;54.976;73.248;2022-10-16T02:52:37;47.83;;;25.33;;
63818;SDS011;49970;54.976;73.248;2022-10-16T02:55:03;54.72;;;27.13;;
63818;SDS011;49970;54.976;73.248;2022-10-16T02:57:30;68.53;;;27.15;;
63818;SDS011;49970;54.976;73.248;2022-10-16T02:59:57;69.97;;;27.88;;
63818;SDS011;49970;54.976;73.248;2022-10-16T03:02:23;63.08;;;28.23;;
63818;SDS011;49970;54.976;73.248;2022-10-16T03:04:50;72.40;;;28.80;;
63818;SDS011;49970;54.976;73.248;2022-10-16T03:07:16;63.65;;;28.52;;
63818;SDS011;49970;54.976;73.248;2022-10-16T03:09:42;88.82;;;30.27;;
63818;SDS011;49970;54.976;73.248;2022-10-16T03:12:08;68.88;;;30.92;;
63818;SDS011;49970;54.976;73.248;2022-10-16T03:14:35;67.57;;;30.35;;
63818;SDS011;49970;54.976;73.248;2022-10-16T03:17:01;97.18;;;33.15;;
63818;SDS011;49970;54.976;73.248;2022-10-16T03:19:27;75.18;;;32.28;;
63818;SDS011;49970;54.976;73.248;2022-10-16T03:21:53;73.85;;;33.60;;
63818;SDS011;49970;54.976;73.248;2022-10-16T03:24:19;88.10;;;35.78;;
63818;SDS011;49970;54.976;73.248;2022-10-16T03:26:46;81.15;;;36.50;;
63818;SDS011;49970;54.976;73.248;2022-10-16T03:29:12;110.55;;;38.05;;
63818;SDS011;49970;54.976;73.248;2022-10-16T03:31:38;88.63;;;37.67;;
63818;SDS011;49970;54.976;73.248;2022-10-16T03:34:05;80.70;;;35.90;;
63818;SDS011;49970;54.976;73.248;2022-10-16T03:36:31;73.60;;;33.70;;
63818;SDS011;49970;54.976;73.248;2022-10-16T03:38:57;67.43;;;34.30;;
63818;SDS011;49970;54.976;73.248;2022-10-16T03:41:23;67.20;;;30.60;;
63818;SDS011;49970;54.976;73.248;2022-10-16T03:43:50;62.78;;;29.80;;
63818;SDS011;49970;54.976;73.248;2022-10-16T03:46:16;67.53;;;31.35;;
63818;SDS011;49970;54.976;73.248;2022-10-16T03:48:42;49.60;;;29.85;;
63818;SDS011;49970;54.976;73.248;2022-10-16T03:51:08;58.83;;;29.50;;
63818;SDS011;49970;54.976;73.248;2022-10-16T03:53:35;70.30;;;30.63;;
63818;SDS011;49970;54.976;73.248;2022-10-16T03:56:03;69.95;;;31.05;;
63818;SDS011;49970;54.976;73.248;2022-10-16T03:58:30;64.53;;;31.13;;
63818;SDS011;49970;54.976;73.248;2022-10-16T04:00:56;70.25;;;33.38;;
63818;SDS011;49970;54.976;73.248;2022-10-16T04:03:22;84.22;;;34.22;;
63818;SDS011;49970;54.976;73.248;2022-10-16T04:05:49;99.75;;;38.10;;
63818;SDS011;49970;54.976;73.248;2022-10-16T04:08:15;89.38;;;34.63;;
63818;SDS011;49970;54.976;73.248;2022-10-16T04:10:42;84.25;;;35.75;;
63818;SDS011;49970;54.976;73.248;2022-10-16T04:13:09;76.15;;;36.10;;
63818;SDS011;49970;54.976;73.248;2022-10-16T04:15:35;89.20;;;35.60;;
63818;SDS011;49970;54.976;73.248;2022-10-16T04:18:03;77.28;;;35.88;;
63818;SDS011;49970;54.976;73.248;2022-10-16T04:20:30;75.38;;;34.97;;
63818;SDS011;49970;54.976;73.248;2022-10-16T04:23:01;83.40;;;35.55;;
63818;SDS011;49970;54.976;73.248;2022-10-16T04:25:27;64.40;;;35.40;;
63818;SDS011;49970;54.976;73.248;2022-10-16T04:27:54;81.60;;;36.10;;
63818;SDS011;49970;54.976;73.248;2022-10-16T04:30:20;73.35;;;34.45;;
63818;SDS011;49970;54.976;73.248;2022-10-16T04:32:48;70.40;;;35.15;;
63818;SDS011;49970;54.976;73.248;2022-10-16T04:35:19;63.13;;;37.95;;
63818;SDS011;49970;54.976;73.248;2022-10-16T04:37:46;104.32;;;49.13;;
63818;SDS011;49970;54.976;73.248;2022-10-16T04:40:13;95.50;;;45.53;;
63818;SDS011;49970;54.976;73.248;2022-10-16T04:42:40;83.70;;;39.25;;
63818;SDS011;49970;54.976;73.248;2022-10-16T04:45:06;72.85;;;38.35;;
63818;SDS011;49970;54.976;73.248;2022-10-16T04:47:33;78.78;;;38.40;;
63818;SDS011;49970;54.976;73.248;2022-10-16T04:50:00;76.68;;;38.60;;
63818;SDS011;49970;54.976;73.248;2022-10-16T04:52:28;73.80;;;36.20;;
63818;SDS011;49970;54.976;73.248;2022-10-16T04:54:54;74.15;;;35.78;;
63818;SDS011;49970;54.976;73.248;2022-10-16T04:57:26;64.72;;;33.05;;
63818;SDS011;49970;54.976;73.248;2022-10-16T04:59:53;60.58;;;32.45;;
63818;SDS011;49970;54.976;73.248;2022-10-16T05:02:19;66.03;;;32.35;;
63818;SDS011;49970;54.976;73.248;2022-10-16T05:04:54;53.53;;;26.60;;
63818;SDS011;49970;54.976;73.248;2022-10-16T05:07:20;41.78;;;25.50;;
63818;SDS011;49970;54.976;73.248;2022-10-16T05:09:49;39.78;;;22.98;;
63818;SDS011;49970;54.976;73.248;2022-10-16T05:12:16;51.50;;;21.98;;
63818;SDS011;49970;54.976;73.248;2022-10-16T05:14:48;42.00;;;22.65;;
63818;SDS011;49970;54.976;73.248;2022-10-16T05:17:24;67.40;;;23.50;;
63818;SDS011;49970;54.976;73.248;2022-10-16T05:19:51;43.72;;;20.88;;
63818;SDS011;49970;54.976;73.248;2022-10-16T05:22:17;38.40;;;19.30;;
63818;SDS011;49970;54.976;73.248;2022-10-16T05:24:44;37.22;;;18.70;;
63818;SDS011;49970;54.976;73.248;2022-10-16T05:27:10;35.58;;;19.08;;
63818;SDS011;49970;54.976;73.248;2022-10-16T05:29:47;35.30;;;18.40;;
63818;SDS011;49970;54.976;73.248;2022-10-16T05:32:14;34.78;;;15.57;;
63818;SDS011;49970;54.976;73.248;2022-10-16T05:34:42;25.63;;;12.35;;
63818;SDS011;49970;54.976;73.248;2022-10-16T05:37:08;30.20;;;12.82;;
63818;SDS011;49970;54.976;73.248;2022-10-16T05:39:37;39.15;;;13.88;;
63818;SDS011;49970;54.976;73.248;2022-10-16T05:42:04;31.48;;;12.57;;
63818;SDS011;49970;54.976;73.248;2022-10-16T05:44:30;30.73;;;12.60;;
63818;SDS011;49970;54.976;73.248;2022-10-16T05:46:57;20.35;;;10.40;;
63818;SDS011;49970;54.976;73.248;2022-10-16T05:49:23;21.88;;;10.55;;
63818;SDS011;49970;54.976;73.248;2022-10-16T05:51:50;28.25;;;13.18;;
63818;SDS011;49970;54.976;73.248;2022-10-16T05:54:16;20.77;;;9.55;;
63818;SDS011;49970;54.976;73.248;2022-10-16T05:56:43;21.08;;;7.90;;
63818;SDS011;49970;54.976;73.248;2022-10-16T05:59:09;25.23;;;12.38;;
63818;SDS011;49970;54.976;73.248;2022-10-16T06:01:35;20.17;;;7.03;;
63818;SDS011;49970;54.976;73.248;2022-10-16T06:04:01;16.33;;;6.78;;
63818;SDS011;49970;54.976;73.248;2022-10-16T06:06:28;42.47;;;26.65;;
63818;SDS011;49970;54.976;73.248;2022-10-16T06:08:55;24.33;;;15.93;;
63818;SDS011;49970;54.976;73.248;2022-10-16T06:11:23;22.90;;;10.23;;
63818;SDS011;49970;54.976;73.248;2022-10-16T06:13:52;26.45;;;14.23;;
63818;SDS011;49970;54.976;73.248;2022-10-16T06:16:25;20.98;;;5.72;;
63818;SDS011;49970;54.976;73.248;2022-10-16T06:18:52;25.25;;;9.63;;
63818;SDS011;49970;54.976;73.248;2022-10-16T06:21:21;15.65;;;11.57;;
63818;SDS011;49970;54.976;73.248;2022-10-16T06:24:00;63.35;;;31.35;;
63818;SDS011;49970;54.976;73.248;2022-10-16T06:26:28;268.35;;;126.70;;
63818;SDS011;49970;54.976;73.248;2022-10-16T06:28:56;67.28;;;28.27;;
63818;SDS011;49970;54.976;73.248;2022-10-16T06:31:23;40.22;;;19.90;;
63818;SDS011;49970;54.976;73.248;2022-10-16T06:33:56;83.37;;;49.97;;
63818;SDS011;49970;54.976;73.248;2022-10-16T06:36:23;186.98;;;114.57;;
63818;SDS011;49970;54.976;73.248;2022-10-16T06:38:50;45.15;;;21.30;;
63818;SDS011;49970;54.976;73.248;2022-10-16T06:41:18;39.80;;;16.45;;
63818;SDS011;49970;54.976;73.248;2022-10-16T06:43:46;25.20;;;12.45;;
63818;SDS011;49970;54.976;73.248;2022-10-16T06:46:17;18.98;;;9.23;;
63818;SDS011;49970;54.976;73.248;2022-10-16T06:48:45;11.43;;;7.57;;
63818;SDS011;49970;54.976;73.248;2022-10-16T06:51:12;25.20;;;7.20;;
63818;SDS011;49970;54.976;73.248;2022-10-16T06:53:49;28.50;;;8.27;;
63818;SDS011;49970;54.976;73.248;2022-10-16T06:58:48;17.17;;;9.85;;
63818;SDS011;49970;54.976;73.248;2022-10-16T07:01:15;18.33;;;8.48;;
63818;SDS011;49970;54.976;73.248;2022-10-16T07:03:44;12.32;;;7.82;;
63818;SDS011;49970;54.976;73.248;2022-10-16T07:06:12;23.75;;;6.93;;
63818;SDS011;49970;54.976;73.248;2022-10-16T07:08:41;9.65;;;6.82;;
63818;SDS011;49970;54.976;73.248;2022-10-16T07:11:12;8.77;;;7.20;;
63818;SDS011;49970;54.976;73.248;2022-10-16T07:13:41;15.20;;;7.85;;
63818;SDS011;49970;54.976;73.248;2022-10-16T07:16:15;19.02;;;7.68;;
63818;SDS011;49970;54.976;73.248;2022-10-16T07:18:43;10.30;;;7.20;;
63818;SDS011;49970;54.976;73.248;2022-10-16T07:23:50;11.88;;;7.85;;
63818;SDS011;49970;54.976;73.248;2022-10-16T07:26:17;10.93;;;7.25;;
63818;SDS011;49970;54.976;73.248;2022-10-16T07:28:44;13.70;;;7.13;;
63818;SDS011;49970;54.976;73.248;2022-10-16T07:31:11;11.85;;;7.32;;
63818;SDS011;49970;54.976;73.248;2022-10-16T07:33:39;20.83;;;8.15;;
63818;SDS011;49970;54.976;73.248;2022-10-16T07:36:07;9.55;;;6.40;;
63818;SDS011;49970;54.976;73.248;2022-10-16T07:38:34;7.95;;;5.68;;
63818;SDS011;49970;54.976;73.248;2022-10-16T07:41:04;12.55;;;6.95;;
63818;SDS011;49970;54.976;73.248;2022-10-16T07:43:39;10.82;;;5.82;;
63818;SDS011;49970;54.976;73.248;2022-10-16T07:46:05;22.65;;;5.47;;
63818;SDS011;49970;54.976;73.248;2022-10-16T07:48:32;12.50;;;4.65;;
63818;SDS011;49970;54.976;73.248;2022-10-16T07:51:00;23.17;;;5.43;;
63818;SDS011;49970;54.976;73.248;2022-10-16T07:53:28;16.08;;;5.60;;
63818;SDS011;49970;54.976;73.248;2022-10-16T07:55:58;27.33;;;6.20;;
63818;SDS011;49970;54.976;73.248;2022-10-16T07:58:25;15.65;;;6.18;;
63818;SDS011;49970;54.976;73.248;2022-10-16T08:00:53;20.65;;;5.60;;
63818;SDS011;49970;54.976;73.248;2022-10-16T08:03:20;13.18;;;5.90;;
63818;SDS011;49970;54.976;73.248;2022-10-16T08:05:46;18.88;;;7.55;;
63818;SDS011;49970;54.976;73.248;2022-10-16T08:08:13;13.98;;;7.80;;
63818;SDS011;49970;54.976;73.248;2022-10-16T08:10:42;10.38;;;6.70;;
63818;SDS011;49970;54.976;73.248;2022-10-16T08:13:10;16.90;;;6.32;;
63818;SDS011;49970;54.976;73.248;2022-10-16T08:15:38;29.77;;;9.48;;
63818;SDS011;49970;54.976;73.248;2022-10-16T08:20:38;15.90;;;10.05;;
63818;SDS011;49970;54.976;73.248;2022-10-16T08:23:06;73.60;;;50.08;;
63818;SDS011;49970;54.976;73.248;2022-10-16T08:25:35;39.83;;;23.88;;
63818;SDS011;49970;54.976;73.248;2022-10-16T08:28:05;15.25;;;6.82;;
63818;SDS011;49970;54.976;73.248;2022-10-16T08:30:33;10.98;;;7.80;;
63818;SDS011;49970;54.976;73.248;2022-10-16T08:33:09;26.25;;;15.38;;
63818;SDS011;49970;54.976;73.248;2022-10-16T08:35:36;36.90;;;18.45;;
63818;SDS011;49970;54.976;73.248;2022-10-16T08:38:06;13.88;;;8.88;;
63818;SDS011;49970;54.976;73.248;2022-10-16T08:40:33;13.27;;;7.35;;
63818;SDS011;49970;54.976;73.248;2022-10-16T08:50:54;12.88;;;6.20;;
63818;SDS011;49970;54.976;73.248;2022-10-16T08:53:23;9.88;;;5.90;;
63818;SDS011;49970;54.976;73.248;2022-10-16T08:55:55;20.20;;;6.53;;
63818;SDS011;49970;54.976;73.248;2022-10-16T08:58:27;7.30;;;5.43;;
63818;SDS011;49970;54.976;73.248;2022-10-16T09:00:59;9.50;;;5.10;;
63818;SDS011;49970;54.976;73.248;2022-10-16T09:20:12;4.63;;;4.00;;
63818;SDS011;49970;54.976;73.248;2022-10-16T09:22:45;4.40;;;4.00;;
63818;SDS011;49970;54.976;73.248;2022-10-16T09:25:15;4.10;;;3.78;;
63818;SDS011;49970;54.976;73.248;2022-10-16T09:27:46;6.43;;;4.05;;
63818;SDS011;49970;54.976;73.248;2022-10-16T09:31:38;6.65;;;4.50;;
63818;SDS011;49970;54.976;73.248;2022-10-16T09:35:43;7.35;;;5.65;;
63818;SDS011;49970;54.976;73.248;2022-10-16T09:39:43;8.50;;;7.00;;
63818;SDS011;49970;54.976;73.248;2022-10-16T09:43:24;22.00;;;11.68;;
63818;SDS011;49970;54.976;73.248;2022-10-16T09:47:04;18.13;;;8.70;;
63818;SDS011;49970;54.976;73.248;2022-10-16T09:49:31;8.45;;;6.85;;
63818;SDS011;49970;54.976;73.248;2022-10-16T09:52:13;19.33;;;5.60;;
63818;SDS011;49970;54.976;73.248;2022-10-16T09:54:59;14.38;;;7.50;;
63818;SDS011;49970;54.976;73.248;2022-10-16T09:57:29;12.40;;;7.30;;
63818;SDS011;49970;54.976;73.248;2022-10-16T09:59:58;13.38;;;7.60;;
63818;SDS011;49970;54.976;73.248;2022-10-16T10:02:37;23.58;;;7.32;;
63818;SDS011;49970;54.976;73.248;2022-10-16T10:05:04;12.68;;;7.20;;
63818;SDS011;49970;54.976;73.248;2022-10-16T10:07:43;18.15;;;6.03;;
63818;SDS011;49970;54.976;73.248;2022-10-16T10:10:24;14.77;;;5.35;;
63818;SDS011;49970;54.976;73.248;2022-10-16T10:12:53;25.05;;;6.35;;
63818;SDS011;49970;54.976;73.248;2022-10-16T10:15:21;16.98;;;7.15;;
63818;SDS011;49970;54.976;73.248;2022-10-16T10:17:50;13.30;;;7.40;;
63818;SDS011;49970;54.976;73.248;2022-10-16T10:20:31;13.35;;;7.72;;
63818;SDS011;49970;54.976;73.248;2022-10-16T10:23:01;15.07;;;9.07;;
63818;SDS011;49970;54.976;73.248;2022-10-16T10:26:00;20.08;;;8.93;;
63818;SDS011;49970;54.976;73.248;2022-10-16T10:28:53;19.58;;;8.88;;
63818;SDS011;49970;54.976;73.248;2022-10-16T10:37:42;12.45;;;6.88;;
63818;SDS011;49970;54.976;73.248;2022-10-16T10:43:28;20.05;;;7.63;;
63818;SDS011;49970;54.976;73.248;2022-10-16T10:45:54;17.23;;;7.75;;
63818;SDS011;49970;54.976;73.248;2022-10-16T10:51:43;15.93;;;5.97;;
63818;SDS011;49970;54.976;73.248;2022-10-16T10:56:57;9.40;;;5.75;;
63818;SDS011;49970;54.976;73.248;2022-10-16T11:03:04;8.20;;;5.43;;
63818;SDS011;49970;54.976;73.248;2022-10-16T11:05:52;9.00;;;6.22;;
63818;SDS011;49970;54.976;73.248;2022-10-16T11:08:41;14.43;;;6.53;;
63818;SDS011;49970;54.976;73.248;2022-10-16T11:11:16;9.60;;;6.30;;
63818;SDS011;49970;54.976;73.248;2022-10-16T11:13:55;14.25;;;7.93;;
63818;SDS011;49970;54.976;73.248;2022-10-16T11:16:33;19.52;;;8.45;;
63818;SDS011;49970;54.976;73.248;2022-10-16T11:19:34;14.10;;;10.60;;
63818;SDS011;49970;54.976;73.248;2022-10-16T11:24:52;18.05;;;10.85;;
63818;SDS011;49970;54.976;73.248;2022-10-16T11:27:33;20.50;;;11.63;;
63818;SDS011;49970;54.976;73.248;2022-10-16T11:30:05;27.25;;;15.32;;
63818;SDS011;49970;54.976;73.248;2022-10-16T11:32:49;27.88;;;15.10;;
63818;SDS011;49970;54.976;73.248;2022-10-16T11:35:24;23.52;;;15.65;;
63818;SDS011;49970;54.976;73.248;2022-10-16T11:37:58;30.40;;;15.38;;
63818;SDS011;49970;54.976;73.248;2022-10-16T11:40:31;27.60;;;13.27;;
63818;SDS011;49970;54.976;73.248;2022-10-16T11:43:04;23.42;;;13.18;;
63818;SDS011;49970;54.976;73.248;2022-10-16T11:45:57;45.28;;;13.82;;
63818;SDS011;49970;54.976;73.248;2022-10-16T11:48:30;32.20;;;14.15;;
63818;SDS011;49970;54.976;73.248;2022-10-16T11:56:42;21.38;;;12.65;;
63818;SDS011;49970;54.976;73.248;2022-10-16T12:01:46;27.45;;;15.00;;
63818;SDS011;49970;54.976;73.248;2022-10-16T12:07:14;52.30;;;21.63;;
63818;SDS011;49970;54.976;73.248;2022-10-16T12:09:47;45.55;;;21.75;;
63818;SDS011;49970;54.976;73.248;2022-10-16T12:12:27;53.33;;;20.85;;
63818;SDS011;49970;54.976;73.248;2022-10-16T12:15:21;70.75;;;30.00;;
63818;SDS011;49970;54.976;73.248;2022-10-16T12:17:57;52.85;;;25.58;;
63818;SDS011;49970;54.976;73.248;2022-10-16T12:20:25;36.10;;;12.85;;
63818;SDS011;49970;54.976;73.248;2022-10-16T12:22:54;22.25;;;10.52;;
63818;SDS011;49970;54.976;73.248;2022-10-16T12:25:33;22.05;;;9.30;;
63818;SDS011;49970;54.976;73.248;2022-10-16T12:30:43;19.55;;;7.53;;
63818;SDS011;49970;54.976;73.248;2022-10-16T12:35:49;16.45;;;7.80;;
63818;SDS011;49970;54.976;73.248;2022-10-16T12:38:21;31.33;;;9.38;;
63818;SDS011;49970;54.976;73.248;2022-10-16T12:43:43;19.00;;;8.43;;
63818;SDS011;49970;54.976;73.248;2022-10-16T12:48:46;31.90;;;9.63;;
63818;SDS011;49970;54.976;73.248;2022-10-16T12:51:24;19.83;;;9.45;;
63818;SDS011;49970;54.976;73.248;2022-10-16T13:10:42;93.07;;;42.33;;
63818;SDS011;49970;54.976;73.248;2022-10-16T13:13:24;132.95;;;59.95;;
63818;SDS011;49970;54.976;73.248;2022-10-16T13:21:32;89.18;;;44.95;;
63818;SDS011;49970;54.976;73.248;2022-10-16T13:24:34;102.65;;;45.60;;
63818;SDS011;49970;54.976;73.248;2022-10-16T13:27:07;105.50;;;51.17;;
63818;SDS011;49970;54.976;73.248;2022-10-16T13:30:16;96.50;;;46.92;;
63818;SDS011;49970;54.976;73.248;2022-10-16T13:32:59;109.97;;;46.13;;
63818;SDS011;49970;54.976;73.248;2022-10-16T13:35:33;110.43;;;41.00;;
63818;SDS011;49970;54.976;73.248;2022-10-16T13:38:16;81.70;;;39.75;;
63818;SDS011;49970;54.976;73.248;2022-10-16T13:40:56;79.78;;;38.10;;
63818;SDS011;49970;54.976;73.248;2022-10-16T13:45:58;57.72;;;30.85;;
63818;SDS011;49970;54.976;73.248;2022-10-16T13:48:36;70.50;;;34.42;;
63818;SDS011;49970;54.976;73.248;2022-10-16T13:51:13;94.55;;;40.38;;
63818;SDS011;49970;54.976;73.248;2022-10-16T13:53:44;85.13;;;40.38;;
63818;SDS011;49970;54.976;73.248;2022-10-16T13:56:12;73.53;;;30.38;;
63818;SDS011;49970;54.976;73.248;2022-10-16T13:58:40;64.82;;;31.05;;
63818;SDS011;49970;54.976;73.248;2022-10-16T14:01:18;68.45;;;30.88;;
63818;SDS011;49970;54.976;73.248;2022-10-16T14:03:48;53.53;;;28.75;;
63818;SDS011;49970;54.976;73.248;2022-10-16T14:06:17;63.70;;;28.13;;
63818;SDS011;49970;54.976;73.248;2022-10-16T14:08:50;63.67;;;29.40;;
63818;SDS011;49970;54.976;73.248;2022-10-16T14:11:27;61.65;;;29.95;;
63818;SDS011;49970;54.976;73.248;2022-10-16T14:13:54;79.75;;;35.00;;
63818;SDS011;49970;54.976;73.248;2022-10-16T14:16:22;70.57;;;31.42;;
63818;SDS011;49970;54.976;73.248;2022-10-16T14:18:56;71.35;;;34.05;;
63818;SDS011;49970;54.976;73.248;2022-10-16T14:21:32;70.82;;;31.70;;
63818;SDS011;49970;54.976;73.248;2022-10-16T14:24:22;67.28;;;33.13;;
63818;SDS011;49970;54.976;73.248;2022-10-16T14:26:52;64.13;;;31.13;;
63818;SDS011;49970;54.976;73.248;2022-10-16T14:29:22;72.32;;;30.65;;
63818;SDS011;49970;54.976;73.248;2022-10-16T14:31:55;61.97;;;31.35;;
63818;SDS011;49970;54.976;73.248;2022-10-16T14:34:28;82.60;;;42.90;;
63818;SDS011;49970;54.976;73.248;2022-10-16T14:37:07;116.57;;;54.83;;
63818;SDS011;49970;54.976;73.248;2022-10-16T14:39:39;113.90;;;58.83;;
63818;SDS011;49970;54.976;73.248;2022-10-16T14:42:13;140.97;;;64.77;;
63818;SDS011;49970;54.976;73.248;2022-10-16T14:44:54;155.25;;;73.47;;
63818;SDS011;49970;54.976;73.248;2022-10-16T14:47:22;193.23;;;92.57;;
63818;SDS011;49970;54.976;73.248;2022-10-16T14:50:01;181.13;;;86.22;;
63818;SDS011;49970;54.976;73.248;2022-10-16T14:52:28;168.43;;;84.20;;
63818;SDS011;49970;54.976;73.248;2022-10-16T14:54:54;169.13;;;81.63;;
63818;SDS011;49970;54.976;73.248;2022-10-16T14:57:22;161.18;;;78.38;;
63818;SDS011;49970;54.976;73.248;2022-10-16T14:59:52;159.20;;;76.32;;
63818;SDS011;49970;54.976;73.248;2022-10-16T15:02:30;147.65;;;73.47;;
63818;SDS011;49970;54.976;73.248;2022-10-16T15:04:57;157.00;;;80.15;;
63818;SDS011;49970;54.976;73.248;2022-10-16T15:07:27;148.68;;;76.97;;
63818;SDS011;49970;54.976;73.248;2022-10-16T15:10:15;93.03;;;50.33;;
63818;SDS011;49970;54.976;73.248;2022-10-16T15:12:42;107.40;;;53.17;;
63818;SDS011;49970;54.976;73.248;2022-10-16T15:18:04;106.82;;;55.72;;
63818;SDS011;49970;54.976;73.248;2022-10-16T15:20:32;98.97;;;52.08;;
63818;SDS011;49970;54.976;73.248;2022-10-16T15:23:15;87.82;;;50.15;;
63818;SDS011;49970;54.976;73.248;2022-10-16T15:25:47;84.25;;;49.78;;
63818;SDS011;49970;54.976;73.248;2022-10-16T15:28:18;103.10;;;50.53;;
63818;SDS011;49970;54.976;73.248;2022-10-16T15:30:45;97.32;;;49.08;;
63818;SDS011;49970;54.976;73.248;2022-10-16T15:33:24;93.43;;;52.28;;
63818;SDS011;49970;54.976;73.248;2022-10-16T15:35:54;103.57;;;53.65;;
63818;SDS011;49970;54.976;73.248;2022-10-16T15:38:30;111.47;;;54.28;;
63818;SDS011;49970;54.976;73.248;2022-10-16T15:41:02;117.15;;;57.83;;
63818;SDS011;49970;54.976;73.248;2022-10-16T15:43:28;109.97;;;59.67;;
63818;SDS011;49970;54.976;73.248;2022-10-16T15:46:01;130.30;;;61.38;;
63818;SDS011;49970;54.976;73.248;2022-10-16T15:48:32;96.53;;;53.38;;
63818;SDS011;49970;54.976;73.248;2022-10-16T15:50:59;100.57;;;53.30;;
63818;SDS011;49970;54.976;73.248;2022-10-16T15:53:26;81.53;;;46.22;;
63818;SDS011;49970;54.976;73.248;2022-10-16T15:55:52;85.68;;;44.25;;
63818;SDS011;49970;54.976;73.248;2022-10-16T15:58:28;82.20;;;44.28;;
63818;SDS011;49970;54.976;73.248;2022-10-16T16:00:56;92.13;;;41.97;;
63818;SDS011;49970;54.976;73.248;2022-10-16T16:03:27;70.47;;;40.75;;
63818;SDS011;49970;54.976;73.248;2022-10-16T16:06:04;71.97;;;35.85;;
63818;SDS011;49970;54.976;73.248;2022-10-16T16:08:34;73.57;;;35.25;;
63818;SDS011;49970;54.976;73.248;2022-10-16T16:11:10;82.53;;;38.05;;
63818;SDS011;49970;54.976;73.248;2022-10-16T16:13:39;96.82;;;40.22;;
63818;SDS011;49970;54.976;73.248;2022-10-16T16:16:07;89.38;;;38.88;;
63818;SDS011;49970;54.976;73.248;2022-10-16T16:18:38;71.18;;;38.30;;
63818;SDS011;49970;54.976;73.248;2022-10-16T16:21:04;68.20;;;38.00;;
63818;SDS011;49970;54.976;73.248;2022-10-16T16:23:31;70.18;;;38.17;;
63818;SDS011;49970;54.976;73.248;2022-10-16T16:26:04;73.97;;;35.60;;
63818;SDS011;49970;54.976;73.248;2022-10-16T16:28:37;93.60;;;37.47;;
63818;SDS011;49970;54.976;73.248;2022-10-16T16:31:04;79.07;;;40.65;;
63818;SDS011;49970;54.976;73.248;2022-10-16T16:33:31;59.28;;;31.05;;
63818;SDS011;49970;54.976;73.248;2022-10-16T16:35:58;76.60;;;32.85;;
63818;SDS011;49970;54.976;73.248;2022-10-16T16:38:26;66.40;;;35.45;;
63818;SDS011;49970;54.976;73.248;2022-10-16T16:40:57;64.78;;;33.80;;
63818;SDS011;49970;54.976;73.248;2022-10-16T16:43:26;68.70;;;32.88;;